createdAt,value
2022-09-23T00:02:11.093Z,99.43
2022-09-23T00:04:38.339Z,99.53
2022-09-23T00:07:05.591Z,99.43
2022-09-23T00:09:32.639Z,99.71
2022-09-23T00:12:00.215Z,100.00
2022-09-23T00:14:47.354Z,99.51
2022-09-23T00:17:48.350Z,99.75
2022-09-23T00:20:49.372Z,100.00
2022-09-23T00:23:30.044Z,100.00
2022-09-23T00:25:58.013Z,100.00
2022-09-23T00:28:25.679Z,100.00
2022-09-23T00:30:52.885Z,100.00
2022-09-23T00:33:20.055Z,100.00
2022-09-23T00:35:47.832Z,100.00
2022-09-23T00:38:14.853Z,100.00
2022-09-23T00:40:46.297Z,100.00
2022-09-23T00:43:14.999Z,100.00
2022-09-23T00:46:04.487Z,100.00
2022-09-23T00:48:45.850Z,100.00
2022-09-23T00:51:18.315Z,100.00
2022-09-23T00:53:50.253Z,100.00
2022-09-23T00:56:19.977Z,100.00
2022-09-23T00:59:07.379Z,100.00
2022-09-23T01:01:50.056Z,100.00
2022-09-23T01:04:17.174Z,100.00
2022-09-23T01:06:44.454Z,100.00
2022-09-23T01:09:11.462Z,100.00
2022-09-23T01:12:07.790Z,100.00
2022-09-23T01:15:14.380Z,100.00
2022-09-23T01:18:55.442Z,100.00
2022-09-23T01:21:56.460Z,100.00
2022-09-23T01:24:46.383Z,100.00
2022-09-23T01:27:28.512Z,100.00
2022-09-23T01:30:18.887Z,100.00
2022-09-23T01:33:04.735Z,100.00
2022-09-23T01:35:48.199Z,100.00
2022-09-23T01:38:26.967Z,100.00
2022-09-23T01:40:54.092Z,100.00
2022-09-23T01:43:31.131Z,100.00
2022-09-23T01:46:00.481Z,100.00
2022-09-23T01:48:40.432Z,100.00
2022-09-23T01:51:14.771Z,100.00
2022-09-23T01:53:52.386Z,100.00
2022-09-23T01:56:39.009Z,100.00
2022-09-23T01:59:42.461Z,100.00
2022-09-23T02:02:29.409Z,100.00
2022-09-23T02:05:09.688Z,100.00
2022-09-23T02:07:41.579Z,100.00
2022-09-23T02:10:17.720Z,100.00
2022-09-23T02:13:08.447Z,100.00
2022-09-23T02:16:12.454Z,100.00
2022-09-23T02:19:00.217Z,100.00
2022-09-23T02:21:34.038Z,100.00
2022-09-23T02:24:09.164Z,100.00
2022-09-23T02:27:05.007Z,100.00
2022-09-23T02:29:52.520Z,100.00
2022-09-23T02:33:29.488Z,100.00
2022-09-23T02:36:20.653Z,100.00
2022-09-23T02:38:57.607Z,100.00
2022-09-23T02:41:50.141Z,100.00
2022-09-23T02:44:19.740Z,100.00
2022-09-23T02:46:47.120Z,100.00
2022-09-23T02:49:17.671Z,100.00
2022-09-23T02:51:45.579Z,100.00
2022-09-23T02:54:26.227Z,100.00
2022-09-23T02:56:54.198Z,100.00
2022-09-23T02:59:41.487Z,100.00
2022-09-23T03:02:51.424Z,100.00
2022-09-23T03:05:37.664Z,100.00
2022-09-23T03:08:26.440Z,100.00
2022-09-23T03:11:01.987Z,100.00
2022-09-23T03:13:59.425Z,100.00
2022-09-23T03:16:47.762Z,100.00
2022-09-23T03:19:42.333Z,100.00
2022-09-23T03:22:27.121Z,100.00
2022-09-23T03:24:58.772Z,100.00
2022-09-23T03:27:30.287Z,100.00
2022-09-23T03:29:57.877Z,100.00
2022-09-23T03:32:28.055Z,100.00
2022-09-23T03:35:18.435Z,100.00
2022-09-23T03:38:27.435Z,100.00
2022-09-23T03:41:11.270Z,100.00
2022-09-23T03:43:39.450Z,100.00
2022-09-23T03:46:08.239Z,100.00
2022-09-23T03:48:35.362Z,100.00
2022-09-23T03:51:20.330Z,100.00
2022-09-23T03:53:48.223Z,100.00
2022-09-23T03:56:15.265Z,100.00
2022-09-23T03:59:02.450Z,100.00
2022-09-23T04:01:43.640Z,100.00
2022-09-23T04:04:10.759Z,100.00
2022-09-23T04:06:37.634Z,100.00
2022-09-23T04:09:04.638Z,100.00
2022-09-23T04:11:31.621Z,100.00
2022-09-23T04:14:18.440Z,100.00
2022-09-23T04:17:19.480Z,100.00
2022-09-23T04:19:59.930Z,100.00
2022-09-23T04:22:26.808Z,100.00
2022-09-23T04:24:53.647Z,100.00
2022-09-23T04:27:20.655Z,100.00
2022-09-23T04:29:47.468Z,100.00
2022-09-23T04:32:14.368Z,100.00
2022-09-23T04:34:41.183Z,100.00
2022-09-23T04:37:08.120Z,100.00
2022-09-23T04:39:35.007Z,100.00
2022-09-23T04:42:01.967Z,100.00
2022-09-23T04:44:49.482Z,100.00
2022-09-23T04:47:50.460Z,100.00
2022-09-23T04:50:34.005Z,100.00
2022-09-23T04:53:01.873Z,100.00
2022-09-23T04:55:29.353Z,100.00
2022-09-23T04:58:16.464Z,100.00
2022-09-23T05:01:36.730Z,100.00
2022-09-23T05:04:38.514Z,100.00
2022-09-23T05:07:37.531Z,100.00
2022-09-23T05:10:18.408Z,100.00
2022-09-23T05:12:45.247Z,100.00
2022-09-23T05:15:16.224Z,100.00
2022-09-23T05:17:43.451Z,100.00
2022-09-23T05:20:11.418Z,100.00
2022-09-23T05:22:38.332Z,100.00
2022-09-23T05:25:25.468Z,100.00
2022-09-23T05:28:06.519Z,100.00
2022-09-23T05:30:33.881Z,100.00
2022-09-23T05:33:01.368Z,100.00
2022-09-23T05:35:28.388Z,100.00
2022-09-23T05:37:55.220Z,100.00
2022-09-23T05:40:22.123Z,100.00
2022-09-23T05:42:50.109Z,100.00
2022-09-23T05:45:17.749Z,100.00
2022-09-23T05:47:44.647Z,100.00
2022-09-23T05:50:31.488Z,100.00
2022-09-23T05:53:32.517Z,100.00
2022-09-23T05:56:14.230Z,100.00
2022-09-23T05:59:05.654Z,100.00
2022-09-23T06:01:46.390Z,100.00
2022-09-23T06:04:14.373Z,100.00
2022-09-23T06:07:03.594Z,100.00
2022-09-23T06:09:44.143Z,100.00
2022-09-23T06:12:11.300Z,100.00
2022-09-23T06:14:38.455Z,100.00
2022-09-23T06:17:05.695Z,100.00
2022-09-23T06:19:32.553Z,100.00
2022-09-23T06:21:59.600Z,100.00
2022-09-23T06:24:31.070Z,100.00
2022-09-23T06:26:58.585Z,100.00
2022-09-23T06:29:25.401Z,100.00
2022-09-23T06:32:12.524Z,100.00
2022-09-23T06:34:53.280Z,99.62
2022-09-23T06:37:20.954Z,95.42
2022-09-23T06:39:48.725Z,93.84
2022-09-23T06:42:16.738Z,92.62
2022-09-23T06:45:03.598Z,93.46
2022-09-23T06:47:44.791Z,94.27
2022-09-23T06:50:12.692Z,89.54
2022-09-23T06:52:39.604Z,89.50
2022-09-23T06:55:07.697Z,91.70
2022-09-23T06:57:54.533Z,92.51
2022-09-23T07:00:55.563Z,95.46
2022-09-23T07:03:57.552Z,92.94
2022-09-23T07:06:58.550Z,94.48
2022-09-23T07:09:39.335Z,89.83
2022-09-23T07:12:06.446Z,91.33
2022-09-23T07:14:33.330Z,89.89
2022-09-23T07:17:00.323Z,86.48
2022-09-23T07:19:27.217Z,89.08
2022-09-23T07:21:54.230Z,90.25
2022-09-23T07:24:41.578Z,87.29
2022-09-23T07:27:42.542Z,84.04
2022-09-23T07:30:25.393Z,79.46
2022-09-23T07:33:26.929Z,80.17
2022-09-23T07:36:34.570Z,80.91
2022-09-23T07:39:15.231Z,81.08
2022-09-23T07:41:44.666Z,82.00
2022-09-23T07:44:11.945Z,84.86
2022-09-23T07:46:38.931Z,83.64
2022-09-23T07:49:06.520Z,87.65
2022-09-23T07:51:38.791Z,82.77
2022-09-23T07:54:10.081Z,81.86
2022-09-23T07:56:38.000Z,82.49
2022-09-23T07:59:27.587Z,85.36
2022-09-23T08:02:28.645Z,80.33
2022-09-23T08:05:09.438Z,79.85
2022-09-23T08:07:56.585Z,78.57
2022-09-23T08:10:57.595Z,75.72
2022-09-23T08:13:38.246Z,75.39
2022-09-23T08:16:05.618Z,76.60
2022-09-23T08:18:33.360Z,78.33
2022-09-23T08:21:00.284Z,73.84
2022-09-23T08:23:27.879Z,72.55
2022-09-23T08:26:00.074Z,74.54
2022-09-23T08:28:27.987Z,68.63
2022-09-23T08:30:55.261Z,67.59
2022-09-23T08:33:23.715Z,66.36
2022-09-23T08:35:51.534Z,70.09
2022-09-23T08:38:38.623Z,69.43
2022-09-23T08:41:34.762Z,68.78
2022-09-23T08:44:20.387Z,68.02
2022-09-23T08:46:56.972Z,69.66
2022-09-23T08:49:31.793Z,65.78
2022-09-23T08:52:06.861Z,69.10
2022-09-23T08:54:34.249Z,72.18
2022-09-23T08:57:04.089Z,70.60
2022-09-23T08:59:57.620Z,66.26
2022-09-23T09:02:38.328Z,63.71
2022-09-23T09:05:10.449Z,69.38
2022-09-23T09:07:57.624Z,65.78
2022-09-23T09:10:59.636Z,62.75
2022-09-23T09:13:56.290Z,60.61
2022-09-23T09:16:59.569Z,58.57
2022-09-23T09:19:40.705Z,62.95
2022-09-23T09:25:32.128Z,57.09
2022-09-23T09:28:01.526Z,59.88
2022-09-23T09:30:28.893Z,57.47
2022-09-23T09:33:06.863Z,55.78
2022-09-23T09:36:17.748Z,57.41
2022-09-23T09:39:20.844Z,55.24
2022-09-23T09:42:06.552Z,52.92
2022-09-23T09:44:50.562Z,52.39
2022-09-23T09:47:17.447Z,50.02
2022-09-23T09:49:54.053Z,53.18
2022-09-23T09:52:29.839Z,56.11
2022-09-23T09:55:17.767Z,46.81
2022-09-23T09:58:12.640Z,46.93
2022-09-23T10:01:13.626Z,48.01
2022-09-23T10:04:16.662Z,44.16
2022-09-23T10:07:27.623Z,43.33
2022-09-23T10:10:37.618Z,44.75
2022-09-23T10:13:39.600Z,41.65
2022-09-23T10:16:20.233Z,45.46
2022-09-23T10:18:47.118Z,43.04
2022-09-23T10:21:16.573Z,42.91
2022-09-23T10:23:52.562Z,43.28
2022-09-23T10:26:32.590Z,42.22
2022-09-23T10:29:19.694Z,40.64
2022-09-23T10:31:46.732Z,41.05
2022-09-23T10:34:41.654Z,44.74
2022-09-23T10:37:35.955Z,44.45
2022-09-23T10:40:33.131Z,41.70
2022-09-23T10:43:21.955Z,43.66
2022-09-23T10:46:08.391Z,42.84
2022-09-23T10:48:58.173Z,42.61
2022-09-23T10:51:46.877Z,39.89
2022-09-23T10:54:35.265Z,39.87
2022-09-23T10:57:27.181Z,42.60
2022-09-23T11:00:21.635Z,44.66
2022-09-23T11:03:50.630Z,44.25
2022-09-23T11:07:13.670Z,39.01
2022-09-23T11:11:02.682Z,44.90
2022-09-23T11:14:05.216Z,42.02
2022-09-23T11:16:40.439Z,40.38
2022-09-23T11:19:17.304Z,39.18
2022-09-23T11:22:05.971Z,40.75
2022-09-23T11:24:58.279Z,44.31
2022-09-23T11:27:47.169Z,46.17
2022-09-23T11:30:34.705Z,42.91
2022-09-23T11:33:30.606Z,38.05
2022-09-23T11:36:02.175Z,41.98
2022-09-23T11:38:39.563Z,39.64
2022-09-23T11:41:25.926Z,41.74
2022-09-23T11:44:08.621Z,41.48
2022-09-23T11:46:43.029Z,39.55
2022-09-23T11:49:23.157Z,41.01
2022-09-23T11:52:02.684Z,42.70
2022-09-23T11:54:34.853Z,44.11
2022-09-23T11:57:05.641Z,40.74
2022-09-23T12:00:16.727Z,38.80
2022-09-23T12:03:12.524Z,38.72
2022-09-23T12:06:04.734Z,39.84
2022-09-23T12:09:10.990Z,39.38
2022-09-23T12:12:04.127Z,39.04
2022-09-23T12:15:19.731Z,39.90
2022-09-23T12:18:39.026Z,42.95
2022-09-23T12:21:45.718Z,40.87
2022-09-23T12:24:39.477Z,40.28
2022-09-23T12:27:12.047Z,38.98
2022-09-23T12:29:41.347Z,40.32
2022-09-23T12:32:18.324Z,40.37
2022-09-23T12:34:52.162Z,39.74
2022-09-23T12:37:47.721Z,40.68
2022-09-23T12:40:44.711Z,42.37
2022-09-23T12:43:33.067Z,39.00
2022-09-23T12:46:39.729Z,39.04
2022-09-23T12:49:29.432Z,44.96
2022-09-23T12:52:13.694Z,43.21
2022-09-23T12:55:04.771Z,41.29
2022-09-23T12:58:05.788Z,41.61
2022-09-23T13:01:36.045Z,42.74
2022-09-23T13:04:21.675Z,44.84
2022-09-23T13:07:22.766Z,39.15
2022-09-23T13:10:19.819Z,38.16
2022-09-23T13:13:02.419Z,40.24
2022-09-23T13:15:34.821Z,39.50
2022-09-23T13:18:33.821Z,39.49
2022-09-23T13:21:57.785Z,39.49
2022-09-23T13:24:41.203Z,40.49
2022-09-23T13:27:19.176Z,39.60
2022-09-23T13:30:04.165Z,39.45
2022-09-23T13:32:35.784Z,38.76
2022-09-23T13:35:05.822Z,38.02
2022-09-23T13:37:42.320Z,39.19
2022-09-23T13:40:24.419Z,37.60
2022-09-23T13:43:04.761Z,39.69
2022-09-23T13:45:53.866Z,40.33
2022-09-23T13:48:37.753Z,40.24
2022-09-23T13:51:29.922Z,40.29
2022-09-23T13:55:01.839Z,40.36
2022-09-23T13:58:27.889Z,40.43
2022-09-23T14:01:48.847Z,39.48
2022-09-23T14:04:29.501Z,40.09
2022-09-23T14:06:57.084Z,40.68
2022-09-23T14:09:27.535Z,41.71
2022-09-23T14:11:57.239Z,39.46
2022-09-23T14:14:44.898Z,38.66
2022-09-23T14:17:25.426Z,39.14
2022-09-23T14:20:12.894Z,40.70
2022-09-23T14:23:10.201Z,41.07
2022-09-23T14:25:38.803Z,41.22
2022-09-23T14:28:06.358Z,41.34
2022-09-23T14:30:54.824Z,40.37
2022-09-23T14:33:56.848Z,41.14
2022-09-23T14:37:03.640Z,42.16
2022-09-23T14:39:30.576Z,41.44
2022-09-23T14:41:57.561Z,40.95
2022-09-23T14:44:25.801Z,41.88
2022-09-23T14:46:57.089Z,41.72
2022-09-23T14:49:25.137Z,41.68
2022-09-23T14:52:14.982Z,42.96
2022-09-23T14:55:15.827Z,41.27
2022-09-23T14:58:28.871Z,41.13
2022-09-23T15:01:44.858Z,41.19
2022-09-23T15:04:42.869Z,41.46
2022-09-23T15:07:18.778Z,41.96
2022-09-23T15:10:05.919Z,41.51
2022-09-23T15:12:49.194Z,41.80
2022-09-23T15:15:17.392Z,41.26
2022-09-23T15:17:45.087Z,41.44
2022-09-23T15:20:36.874Z,41.16
2022-09-23T15:23:47.534Z,41.27
2022-09-23T15:26:17.680Z,41.35
2022-09-23T15:28:45.609Z,40.93
2022-09-23T15:31:17.932Z,40.42
2022-09-23T15:33:47.775Z,40.96
2022-09-23T15:36:37.857Z,42.50
2022-09-23T15:39:38.921Z,40.98
2022-09-23T15:42:19.441Z,42.31
2022-09-23T15:44:46.339Z,41.68
2022-09-23T15:47:18.973Z,41.72
2022-09-23T15:49:47.266Z,41.94
2022-09-23T15:52:33.913Z,42.62
2022-09-23T15:55:34.880Z,42.14
2022-09-23T15:58:35.891Z,42.67
2022-09-23T16:01:50.914Z,41.82
2022-09-23T16:04:55.187Z,41.75
2022-09-23T16:07:31.288Z,42.30
2022-09-23T16:09:58.904Z,43.13
2022-09-23T16:12:25.934Z,43.69
2022-09-23T16:14:53.037Z,43.23
2022-09-23T16:17:20.039Z,43.97
2022-09-23T16:19:47.064Z,42.28
2022-09-23T16:22:34.135Z,43.67
2022-09-23T16:25:14.532Z,43.58
2022-09-23T16:27:42.089Z,43.20
2022-09-23T16:30:10.302Z,44.50
2022-09-23T16:32:37.350Z,45.68
2022-09-23T16:35:06.013Z,46.87
2022-09-23T16:37:53.906Z,47.18
2022-09-23T16:40:35.500Z,47.06
2022-09-23T16:43:05.482Z,47.25
2022-09-23T16:45:32.644Z,47.62
2022-09-23T16:48:00.077Z,47.23
2022-09-23T16:50:48.936Z,47.49
2022-09-23T16:53:50.994Z,47.18
2022-09-23T16:56:32.093Z,47.96
2022-09-23T16:59:18.932Z,48.80
2022-09-23T17:02:41.990Z,48.81
2022-09-23T17:05:22.764Z,49.50
2022-09-23T17:08:10.974Z,50.58
2022-09-23T17:11:16.874Z,50.56
2022-09-23T17:14:01.111Z,51.24
2022-09-23T17:16:32.240Z,51.86
2022-09-23T17:19:00.238Z,52.11
2022-09-23T17:21:27.872Z,51.50
2022-09-23T17:23:56.180Z,50.85
2022-09-23T17:26:47.326Z,50.80
2022-09-23T17:29:30.679Z,51.85
2022-09-23T17:31:58.158Z,51.97
2022-09-23T17:34:25.273Z,52.65
2022-09-23T17:37:11.986Z,53.26
2022-09-23T17:39:57.100Z,52.93
2022-09-23T17:42:23.954Z,53.29
2022-09-23T17:44:51.301Z,53.35
2022-09-23T17:47:18.669Z,53.30
2022-09-23T17:49:47.151Z,54.56
2022-09-23T17:52:14.180Z,55.33
2022-09-23T17:54:42.723Z,56.44
2022-09-23T17:57:29.974Z,55.42
2022-09-23T18:03:28.139Z,56.10
2022-09-23T18:06:05.231Z,55.47
2022-09-23T18:08:35.781Z,54.94
2022-09-23T18:11:14.960Z,55.97
2022-09-23T18:13:42.874Z,56.89
2022-09-23T18:16:09.868Z,55.93
2022-09-23T18:18:57.015Z,56.03
2022-09-23T18:22:04.015Z,56.16
2022-09-23T18:24:47.587Z,55.26
2022-09-23T18:27:14.640Z,55.69
2022-09-23T18:29:41.597Z,56.04
2022-09-23T18:32:13.813Z,55.74
2022-09-23T18:34:41.232Z,56.12
2022-09-23T18:37:15.403Z,55.94
2022-09-23T18:39:43.605Z,57.07
2022-09-23T18:42:11.328Z,58.35
2022-09-23T18:44:38.482Z,58.69
2022-09-23T18:47:28.840Z,58.50
2022-09-23T18:53:16.110Z,59.27
2022-09-23T18:59:03.013Z,59.06
2022-09-23T19:02:06.167Z,58.94
2022-09-23T19:04:46.549Z,58.76
2022-09-23T19:07:34.056Z,58.79
2022-09-23T19:10:14.624Z,59.03
2022-09-23T19:12:41.510Z,59.26
2022-09-23T19:15:09.358Z,58.71
2022-09-23T19:17:36.423Z,57.69
2022-09-23T19:20:23.156Z,57.13
2022-09-23T19:23:03.569Z,56.76
2022-09-23T19:25:51.027Z,57.08
2022-09-23T19:28:53.024Z,56.85
2022-09-23T19:31:54.042Z,57.66
2022-09-23T19:34:35.677Z,57.81
2022-09-23T19:37:04.431Z,57.90
2022-09-23T19:39:31.950Z,58.04
2022-09-23T19:41:59.121Z,59.70
2022-09-23T19:44:46.050Z,61.42
2022-09-23T19:47:28.172Z,62.41
2022-09-23T19:49:55.363Z,62.49
2022-09-23T19:52:22.953Z,59.97
2022-09-23T19:54:49.988Z,59.21
2022-09-23T19:57:17.025Z,60.50
2022-09-23T20:00:04.088Z,60.45
2022-09-23T20:03:08.074Z,60.42
2022-09-23T20:05:57.850Z,60.94
2022-09-23T20:08:27.292Z,60.37
2022-09-23T20:10:56.977Z,61.16
2022-09-23T20:13:29.264Z,64.57
2022-09-23T20:15:58.123Z,65.38
2022-09-23T20:18:46.245Z,65.77
2022-09-23T20:21:47.155Z,67.04
2022-09-23T20:24:46.331Z,66.18
2022-09-23T20:27:13.308Z,66.40
2022-09-23T20:30:00.230Z,66.63
2022-09-23T20:33:01.132Z,66.21
2022-09-23T20:35:44.327Z,65.67
2022-09-23T20:38:11.491Z,64.25
2022-09-23T20:40:38.858Z,63.34
2022-09-23T20:43:05.985Z,62.64
2022-09-23T20:45:53.115Z,63.09
2022-09-23T20:48:33.928Z,63.11
2022-09-23T20:51:05.830Z,65.03
2022-09-23T20:53:53.204Z,64.40
2022-09-23T20:56:33.763Z,63.63
2022-09-23T20:59:21.097Z,63.66
2022-09-23T21:02:23.118Z,63.35
2022-09-23T21:05:03.862Z,60.66
2022-09-23T21:07:51.146Z,60.60
2022-09-23T21:10:31.810Z,60.26
2022-09-23T21:12:59.188Z,60.30
2022-09-23T21:15:27.836Z,62.66
2022-09-23T21:17:54.791Z,64.95
2022-09-23T21:20:42.187Z,64.36
2022-09-23T21:23:43.055Z,63.00
2022-09-23T21:26:17.520Z,61.54
2022-09-23T21:28:49.667Z,61.40
2022-09-23T21:31:26.033Z,66.62
2022-09-23T21:33:54.050Z,64.22
2022-09-23T21:37:07.105Z,67.61
2022-09-23T21:39:38.195Z,66.44
2022-09-23T21:42:06.202Z,65.74
2022-09-23T21:44:34.531Z,66.38
2022-09-23T21:47:01.542Z,66.73
2022-09-23T21:49:50.954Z,61.87
2022-09-23T21:52:31.843Z,63.22
2022-09-23T21:54:58.892Z,63.65
2022-09-23T21:57:26.023Z,65.13
2022-09-23T22:00:13.146Z,64.82
2022-09-23T22:03:15.118Z,62.44
2022-09-23T22:06:04.836Z,64.39
2022-09-23T22:08:37.136Z,63.35
2022-09-23T22:11:32.648Z,63.97
2022-09-23T22:14:02.197Z,64.42
2022-09-23T22:16:30.047Z,64.63
2022-09-23T22:19:17.207Z,66.88
2022-09-23T22:22:13.266Z,63.68
2022-09-23T22:24:41.306Z,64.75
2022-09-23T22:27:09.895Z,67.17
2022-09-23T22:29:55.945Z,65.50
2022-09-23T22:32:34.818Z,66.49
2022-09-23T22:35:02.036Z,67.96
2022-09-23T22:37:50.186Z,69.08
2022-09-23T22:40:30.957Z,68.48
2022-09-23T22:42:58.072Z,70.11
2022-09-23T22:45:25.144Z,70.77
2022-09-23T22:47:53.354Z,70.70
2022-09-23T22:50:20.363Z,70.70
2022-09-23T22:53:08.168Z,70.66
2022-09-23T22:56:13.191Z,70.29
2022-09-23T22:59:18.175Z,69.38
2022-09-23T23:02:19.225Z,67.98
2022-09-23T23:05:11.849Z,68.76
2022-09-23T23:08:01.359Z,69.18
2022-09-23T23:10:42.409Z,68.88
2022-09-23T23:13:10.954Z,70.52
2022-09-23T23:15:58.375Z,69.45
2022-09-23T23:18:40.884Z,69.23
2022-09-23T23:21:30.199Z,68.17
2022-09-23T23:24:15.872Z,67.09
2022-09-23T23:26:43.058Z,66.23
2022-09-23T23:29:11.908Z,67.59
2022-09-23T23:31:39.385Z,67.61
2022-09-23T23:34:10.771Z,68.43
2022-09-23T23:36:38.576Z,68.07
2022-09-23T23:39:05.719Z,73.20
2022-09-23T23:41:33.384Z,75.49
2022-09-23T23:44:01.350Z,75.60
2022-09-23T23:46:30.453Z,72.52
2022-09-23T23:49:18.168Z,73.47
2022-09-23T23:52:19.212Z,73.79
2022-09-23T23:54:59.971Z,74.55
2022-09-23T23:57:26.854Z,74.09
